Time;durP1;ratioP1;P1;durP2;ratioP2;P2;SDS_P1;SDS_P2;PMS_P1;PMS_P2;Temp;Humidity;BMP_temperature;BMP_pressure;BME280_temperature;BME280_humidity;BME280_pressure;Samples;Min_cycle;Max_cycle;Signal;HPM_P1;HPM_P2
2021/07/15 00:00:59;;;;;;;24.85;14.50;;;;;;;22.79;79.45;94964.47;5130779;27;20104;-67
2021/07/15 00:03:29;;;;;;;18.63;13.13;;;;;;;22.81;79.18;94975.56;5109325;27;20095;-64
2021/07/15 00:05:56;;;;;;;20.95;15.38;;;;;;;22.78;79.73;94970.88;5130081;27;20031;-64
2021/07/15 00:08:25;;;;;;;17.20;14.13;;;;;;;22.76;80.03;94967.75;5109983;27;20093;-67
2021/07/15 00:10:57;;;;;;;17.65;13.13;;;;;;;22.77;80.42;94971.97;5126663;27;20054;-67
2021/07/15 00:13:25;;;;;;;22.13;15.07;;;;;;;22.75;80.43;94968.84;5135401;27;20465;-67
2021/07/15 00:15:55;;;;;;;19.55;14.52;;;;;;;22.73;80.71;94968.38;5110804;27;20078;-67
2021/07/15 00:18:27;;;;;;;24.83;14.15;;;;;;;22.59;81.50;94961.25;5119918;27;20427;-67
2021/07/15 00:20:56;;;;;;;18.38;14.48;;;;;;;22.61;81.59;94964.38;5126679;27;20050;-67
2021/07/15 00:23:23;;;;;;;20.40;15.43;;;;;;;22.63;81.87;94967.50;5130643;27;20503;-67
2021/07/15 00:25:50;;;;;;;19.95;14.77;;;;;;;22.67;81.53;94963.19;5109893;27;20492;-67
2021/07/15 00:28:18;;;;;;;19.50;14.55;;;;;;;22.64;81.25;94958.47;5110144;27;20061;-67
2021/07/15 00:30:46;;;;;;;20.00;14.43;;;;;;;22.59;81.57;94961.25;5115231;27;20042;-67
2021/07/15 00:33:13;;;;;;;23.30;14.65;;;;;;;22.61;81.73;94964.38;5114342;27;20117;-68
2021/07/15 00:35:40;;;;;;;28.80;16.27;;;;;;;22.33;83.33;94959.22;5114751;27;20031;-68
2021/07/15 00:38:08;;;;;;;20.70;16.10;;;;;;;22.38;83.31;94965.50;5096288;28;20130;-67
2021/07/15 00:40:36;;;;;;;22.23;14.55;;;;;;;22.33;83.86;94975.16;5098028;27;20133;-65
2021/07/15 00:43:04;;;;;;;18.50;14.55;;;;;;;22.24;84.69;94971.63;5112743;27;20043;-65
2021/07/15 00:45:32;;;;;;;25.45;15.05;;;;;;;22.18;85.25;94967.50;5114362;27;20042;-65
2021/07/15 00:47:59;;;;;;;26.10;16.77;;;;;;;22.24;84.98;94970.84;5113479;27;20508;-65
2021/07/15 00:50:26;;;;;;;21.20;15.27;;;;;;;22.19;85.11;94963.78;5113978;27;20050;-64
2021/07/15 00:52:54;;;;;;;21.92;15.40;;;;;;;22.24;85.31;94966.31;5114505;27;20052;-64
2021/07/15 00:55:27;;;;;;;25.10;14.00;;;;;;;22.15;85.93;94963.59;5116469;27;20061;-64
2021/07/15 00:57:55;;;;;;;21.58;14.93;;;;;;;22.21;85.59;94964.25;5114664;27;20039;-65
2021/07/15 01:00:23;;;;;;;24.45;15.50;;;;;;;22.15;85.70;94952.22;5131524;27;20535;-65
2021/07/15 01:02:52;;;;;;;22.55;15.75;;;;;;;22.18;85.53;94950.81;5111962;27;20037;-65
2021/07/15 01:05:27;;;;;;;20.23;14.50;;;;;;;22.20;85.56;94952.09;5092346;27;20047;-66
2021/07/15 01:07:54;;;;;;;23.33;13.65;;;;;;;22.11;85.87;94945.91;5111303;27;20778;-66
2021/07/15 01:17:22;;;;;;;25.35;15.07;;;;;;;21.72;88.83;94945.47;5075572;27;20136;-68
2021/07/15 01:19:51;;;;;;;19.65;15.15;;;;;;;21.69;89.40;94951.34;5083502;28;20163;-68
2021/07/15 01:22:28;;;;;;;20.77;14.45;;;;;;;21.74;88.97;94937.22;5080165;28;20052;-68
2021/07/15 01:25:48;;;;;;;19.00;14.43;;;;;;;21.81;88.72;94945.53;5084293;28;20028;-65
2021/07/15 01:28:34;;;;;;;24.90;14.10;;;;;;;21.68;88.76;94935.75;5081288;28;20040;-65
2021/07/15 01:31:03;;;;;;;20.90;14.73;;;;;;;21.81;88.54;94942.91;5086006;27;20060;-65
2021/07/15 01:33:37;;;;;;;20.38;13.90;;;;;;;21.84;88.77;94934.34;5086615;28;20521;-65
2021/07/15 01:36:12;;;;;;;18.17;13.75;;;;;;;21.85;88.62;94938.56;5084371;28;20044;-65
2021/07/15 01:38:43;;;;;;;20.63;14.30;;;;;;;21.81;88.56;94939.47;5084342;28;20062;-68
2021/07/15 01:41:20;;;;;;;19.25;14.82;;;;;;;21.81;89.17;94937.59;5084564;28;20068;-67
2021/07/15 01:43:51;;;;;;;25.55;14.98;;;;;;;21.80;89.20;94941.31;5084376;28;20051;-68
2021/07/15 01:46:19;;;;;;;21.20;14.57;;;;;;;21.77;89.24;94936.63;5083775;28;20139;-68
2021/07/15 01:48:47;;;;;;;18.17;14.45;;;;;;;21.77;89.15;94941.94;5084026;28;20041;-67
2021/07/15 01:51:15;;;;;;;16.42;13.80;;;;;;;21.72;89.57;94939.38;5085503;28;20124;-68
2021/07/15 01:53:42;;;;;;;16.45;14.25;;;;;;;21.63;90.05;94941.19;5084503;28;20545;-68
2021/07/15 01:56:11;;;;;;;23.73;14.95;;;;;;;21.62;90.31;94945.69;5082193;28;20056;-68
2021/07/15 01:58:40;;;;;;;19.13;13.88;;;;;;;21.56;90.63;94942.34;5086714;28;20067;-68
2021/07/15 02:01:09;;;;;;;16.20;14.18;;;;;;;21.64;90.83;94948.03;5080383;28;20143;-68
2021/07/15 02:03:41;;;;;;;24.63;13.82;;;;;;;21.60;91.12;94947.06;5083227;28;20119;-66
2021/07/15 02:06:10;;;;;;;17.50;14.00;;;;;;;21.53;91.16;94948.25;5086859;28;20066;-65
2021/07/15 02:08:38;;;;;;;19.10;14.77;;;;;;;21.50;91.57;94948.84;5082535;28;20041;-65
2021/07/15 02:11:07;;;;;;;21.35;13.95;;;;;;;21.46;92.23;94957.69;5085417;28;20052;-65
2021/07/15 02:13:34;;;;;;;23.30;14.52;;;;;;;21.26;93.12;94942.97;5087111;28;20033;-65
2021/07/15 02:16:02;;;;;;;15.98;14.05;;;;;;;21.31;93.12;94954.22;5083944;28;21018;-66
2021/07/15 02:18:30;;;;;;;22.60;14.20;;;;;;;21.30;92.88;94943.94;5083063;28;20047;-65
2021/07/15 02:20:58;;;;;;;23.48;14.02;;;;;;;21.24;93.33;94945.13;5087119;27;20056;-65
2021/07/15 02:23:27;;;;;;;19.52;14.82;;;;;;;21.31;92.96;94953.44;5081103;28;20097;-65
2021/07/15 02:25:56;;;;;;;26.75;15.98;;;;;;;21.18;93.71;94947.88;5081513;28;20079;-65
2021/07/15 02:28:25;;;;;;;20.02;15.05;;;;;;;21.19;93.85;94956.59;5073717;28;20040;-68
2021/07/15 02:31:00;;;;;;;19.05;15.27;;;;;;;21.09;93.93;94944.34;5072773;28;20048;-68
2021/07/15 02:33:29;;;;;;;23.38;14.02;;;;;;;21.11;94.03;94952.78;5056896;28;20043;-68
2021/07/15 02:36:01;;;;;;;21.48;14.32;;;;;;;21.04;94.05;94936.50;5072887;28;20059;-68
2021/07/15 02:38:31;;;;;;;19.85;14.13;;;;;;;21.16;94.08;94960.63;5073795;28;20047;-67
2021/07/15 02:40:58;;;;;;;19.52;14.70;;;;;;;21.17;93.96;94951.56;5070875;28;20067;-68
2021/07/15 02:43:25;;;;;;;22.65;14.25;;;;;;;21.05;94.83;94953.97;5071841;28;20418;-67
2021/07/15 02:45:52;;;;;;;18.65;14.35;;;;;;;21.04;94.95;94946.31;5069786;28;20778;-67
2021/07/15 02:48:19;;;;;;;26.00;16.30;;;;;;;21.08;94.67;94948.06;5068275;28;20048;-67
2021/07/15 02:50:47;;;;;;;22.27;14.30;;;;;;;21.03;94.69;94940.22;5071589;28;20036;-68
2021/07/15 02:53:15;;;;;;;29.73;15.93;;;;;;;20.92;95.15;94949.41;5066448;28;20045;-67
2021/07/15 02:55:57;;;;;;;26.63;17.25;;;;;;;20.87;95.16;94952.16;5067169;28;20045;-67
2021/07/15 02:58:31;;;;;;;20.58;16.33;;;;;;;20.86;95.80;94950.59;5072932;28;20036;-68
2021/07/15 03:01:06;;;;;;;20.20;15.98;;;;;;;20.79;95.70;94941.16;5105327;27;20051;-68
2021/07/15 03:04:00;;;;;;;26.33;17.13;;;;;;;20.78;95.61;94950.19;5071831;28;20036;-68
2021/07/15 03:06:39;;;;;;;21.73;16.65;;;;;;;20.76;95.43;94946.25;5073067;28;20112;-68
2021/07/15 03:09:13;;;;;;;24.52;15.70;;;;;;;20.74;95.65;94949.22;5074948;28;20453;-68
2021/07/15 03:11:48;;;;;;;21.67;16.38;;;;;;;20.69;95.40;94940.56;5071730;28;20053;-67
2021/07/15 03:14:17;;;;;;;32.40;16.02;;;;;;;20.72;95.67;94946.06;5069730;28;20134;-68
2021/07/15 03:16:45;;;;;;;25.38;16.40;;;;;;;20.68;95.27;94934.50;5067177;28;20525;-67
2021/07/15 03:19:16;;;;;;;23.40;15.75;;;;;;;20.73;95.59;94950.28;5066701;28;20576;-67
2021/07/15 03:21:44;;;;;;;28.38;16.08;;;;;;;20.65;95.77;94945.66;5067839;28;20528;-67
2021/07/15 03:24:13;;;;;;;21.75;16.55;;;;;;;20.72;95.54;94956.66;5070804;28;20478;-68
2021/07/15 03:26:42;;;;;;;22.63;17.33;;;;;;;20.68;94.96;94950.38;5066665;28;20054;-67
2021/07/15 03:29:12;;;;;;;21.90;16.92;;;;;;;20.54;95.47;94939.72;5068569;28;20121;-68
2021/07/15 03:31:39;;;;;;;26.88;16.67;;;;;;;20.58;95.30;94946.03;5067699;28;20546;-68
2021/07/15 03:34:06;;;;;;;24.58;16.85;;;;;;;20.61;95.32;94956.03;5070256;28;20044;-68
2021/07/15 03:36:33;;;;;;;22.90;17.23;;;;;;;20.57;95.19;94943.66;5070830;28;20498;-67
2021/07/15 03:39:01;;;;;;;22.75;17.10;;;;;;;20.59;95.51;94946.81;5069540;28;20040;-67
2021/07/15 03:41:28;;;;;;;26.98;17.52;;;;;;;20.70;95.04;94953.50;5066438;28;20430;-67
2021/07/15 03:43:56;;;;;;;28.27;16.25;;;;;;;20.68;94.59;94950.38;5071200;28;20037;-67
2021/07/15 03:46:26;;;;;;;23.00;16.73;;;;;;;20.66;93.83;94952.53;5069719;28;20045;-68
2021/07/15 03:48:55;;;;;;;26.42;16.63;;;;;;;20.72;93.69;94956.66;5067058;28;20516;-68
2021/07/15 03:51:22;;;;;;;17.50;15.15;;;;;;;20.72;94.00;94950.56;5069011;28;20048;-67
2021/07/15 03:53:50;;;;;;;22.13;14.77;;;;;;;20.76;93.54;94952.38;5071048;28;20506;-67
2021/07/15 03:56:18;;;;;;;22.77;16.52;;;;;;;20.81;93.54;94948.81;5068149;28;20090;-67
2021/07/15 03:58:46;;;;;;;18.67;16.23;;;;;;;20.83;93.82;94948.53;5068511;28;20086;-67
2021/07/15 04:01:14;;;;;;;22.70;16.08;;;;;;;20.78;93.71;94942.25;5071291;28;20782;-68
2021/07/15 04:03:44;;;;;;;21.27;16.00;;;;;;;20.80;93.94;94942.75;5069288;28;20079;-67
2021/07/15 04:06:12;;;;;;;18.40;15.73;;;;;;;20.77;94.06;94943.34;5069350;28;20062;-67
2021/07/15 04:08:42;;;;;;;23.58;16.63;;;;;;;20.90;93.58;94951.59;5070213;28;20599;-68
2021/07/15 04:11:13;;;;;;;25.45;14.93;;;;;;;20.89;94.08;94950.03;5057711;28;20052;-67
2021/07/15 04:13:43;;;;;;;21.42;15.80;;;;;;;20.89;93.11;94948.16;5070397;28;20054;-67
2021/07/15 04:16:19;;;;;;;24.05;15.48;;;;;;;20.97;93.19;94939.53;5066479;28;20048;-67
2021/07/15 04:18:48;;;;;;;21.38;15.45;;;;;;;20.98;93.30;94935.03;5069308;28;20068;-67
2021/07/15 04:21:17;;;;;;;23.08;17.50;;;;;;;21.03;92.70;94936.78;5069537;28;20063;-68
2021/07/15 04:23:46;;;;;;;19.17;15.48;;;;;;;21.01;92.66;94937.06;5068839;28;20049;-67
2021/07/15 04:26:14;;;;;;;22.70;15.55;;;;;;;21.10;91.94;94934.53;5068283;28;20124;-68
2021/07/15 04:28:42;;;;;;;24.58;17.55;;;;;;;21.16;92.03;94934.13;5069864;28;20444;-67
2021/07/15 04:31:29;;;;;;;22.35;15.68;;;;;;;21.20;91.40;94939.63;5066498;28;20059;-67
2021/07/15 04:33:59;;;;;;;19.60;15.73;;;;;;;21.18;90.66;94937.28;5066646;28;20075;-67
2021/07/15 04:36:30;;;;;;;28.08;16.35;;;;;;;21.22;91.02;94931.41;5067824;28;20033;-67
2021/07/15 04:38:58;;;;;;;24.05;15.43;;;;;;;21.32;89.67;94931.16;5070578;28;20041;-67
2021/07/15 04:41:26;;;;;;;21.17;14.57;;;;;;;21.36;89.43;94926.88;5067848;28;20115;-67
2021/07/15 04:43:57;;;;;;;21.63;14.38;;;;;;;21.44;89.36;94928.81;5066704;28;20045;-67
2021/07/15 04:46:25;;;;;;;19.83;13.82;;;;;;;21.55;88.92;94929.41;5064953;28;20047;-67
2021/07/15 04:48:52;;;;;;;17.00;13.68;;;;;;;21.56;88.67;94930.97;5065337;28;20036;-67
2021/07/15 04:51:20;;;;;;;18.00;13.80;;;;;;;21.67;87.93;94928.91;5065780;28;20041;-68
2021/07/15 04:53:47;;;;;;;23.15;14.07;;;;;;;21.66;87.53;94929.97;5065901;28;20044;-68
2021/07/15 04:56:15;;;;;;;21.17;13.60;;;;;;;21.67;87.24;94926.25;5065488;28;20043;-66
2021/07/15 04:58:43;;;;;;;15.80;13.98;;;;;;;21.87;86.23;94939.03;5065330;28;20044;-67
2021/07/15 05:01:10;;;;;;;20.45;13.95;;;;;;;21.96;86.54;94939.88;5066148;28;20044;-66
2021/07/15 05:03:38;;;;;;;24.02;13.07;;;;;;;21.67;86.33;94889.13;5065238;28;20063;-67
2021/07/15 05:06:07;;;;;;;22.45;13.82;;;;;;;22.10;85.26;94933.75;5065437;28;20037;-67
2021/07/15 05:08:37;;;;;;;22.92;13.75;;;;;;;22.04;85.02;94934.94;5065899;28;20048;-67
2021/07/15 05:11:04;;;;;;;20.83;12.90;;;;;;;22.21;84.64;94935.06;5065775;28;20044;-67
2021/07/15 05:13:30;;;;;;;16.17;12.85;;;;;;;22.27;83.40;94944.53;5068547;28;20059;-68
2021/07/15 05:15:58;;;;;;;20.27;12.68;;;;;;;22.24;83.71;94945.09;5064209;28;22297;-67
2021/07/15 05:18:24;;;;;;;22.58;13.63;;;;;;;22.38;83.14;94949.56;5063674;28;20052;-67
2021/07/15 05:20:51;;;;;;;16.80;13.60;;;;;;;22.44;83.43;94945.72;5064352;28;20048;-67
2021/07/15 05:23:19;;;;;;;18.52;11.90;;;;;;;22.52;82.85;94943.09;5064938;28;20041;-67
2021/07/15 05:25:46;;;;;;;36.17;13.25;;;;;;;22.61;83.51;94947.69;5064466;28;20052;-67
2021/07/15 05:28:13;;;;;;;25.25;12.48;;;;;;;22.67;83.02;94947.25;5063751;28;20040;-67
2021/07/15 05:30:40;;;;;;;23.42;12.02;;;;;;;22.80;82.25;94948.25;5064582;28;20040;-67
2021/07/15 05:33:07;;;;;;;43.55;13.45;;;;;;;22.84;81.24;94945.78;5066663;28;20115;-67
2021/07/15 05:35:34;;;;;;;20.73;13.52;;;;;;;22.92;81.04;94963.59;5065212;28;20401;-68
2021/07/15 05:38:04;;;;;;;19.33;12.30;;;;;;;22.92;80.63;94947.66;5066599;28;20041;-67
2021/07/15 05:40:31;;;;;;;13.60;11.40;;;;;;;22.99;79.89;94953.31;5065496;28;20098;-67
2021/07/15 05:42:58;;;;;;;21.88;12.68;;;;;;;23.00;79.92;94954.91;5067006;28;20529;-67
2021/07/15 05:45:25;;;;;;;21.05;13.02;;;;;;;23.05;80.53;94946.81;5065543;28;20048;-67
2021/07/15 05:47:52;;;;;;;20.02;13.13;;;;;;;23.17;80.41;94958.72;5067038;28;20036;-67
2021/07/15 05:50:19;;;;;;;25.52;12.10;;;;;;;23.21;79.76;94938.41;5064554;28;20060;-68
2021/07/15 05:52:46;;;;;;;21.25;12.52;;;;;;;23.39;79.48;94945.38;5065292;28;20032;-67
2021/07/15 05:55:13;;;;;;;18.80;12.75;;;;;;;23.54;77.50;94951.34;5066278;28;20639;-67
2021/07/15 05:57:40;;;;;;;17.95;12.30;;;;;;;23.64;79.15;94956.34;5067249;28;20490;-67
2021/07/15 06:00:12;;;;;;;19.52;12.15;;;;;;;23.70;77.61;94949.78;5067551;28;20430;-67
2021/07/15 06:02:39;;;;;;;18.25;12.00;;;;;;;23.66;79.78;94943.53;5067735;28;20044;-67
2021/07/15 06:05:24;;;;;;;21.67;12.43;;;;;;;23.81;77.83;94945.75;5069612;28;20123;-67
2021/07/15 06:07:52;;;;;;;21.38;11.68;;;;;;;23.82;78.07;94947.34;5070967;28;20032;-68
2021/07/15 06:10:19;;;;;;;19.85;11.73;;;;;;;23.97;77.72;94942.66;5067564;28;20048;-68
2021/07/15 06:12:46;;;;;;;19.83;12.85;;;;;;;24.16;77.16;94947.63;5066587;28;20049;-68
2021/07/15 06:15:13;;;;;;;14.18;11.18;;;;;;;24.13;76.68;94945.59;5067640;28;20052;-68
2021/07/15 06:17:40;;;;;;;17.10;11.55;;;;;;;24.24;76.29;94942.31;5066690;28;20052;-67
2021/07/15 06:20:12;;;;;;;18.05;11.18;;;;;;;24.26;75.96;94946.53;5068676;28;20403;-68
2021/07/15 06:22:48;;;;;;;14.80;11.55;;;;;;;24.20;76.96;94930.75;5068175;28;20063;-69
2021/07/15 06:25:15;;;;;;;20.40;11.05;;;;;;;24.33;76.09;94938.88;5067141;28;20058;-68
2021/07/15 06:27:43;;;;;;;17.80;11.10;;;;;;;24.38;75.69;94941.34;5068038;28;20063;-68
2021/07/15 06:30:12;;;;;;;19.52;11.10;;;;;;;24.51;75.90;94945.72;5069174;28;20036;-68
2021/07/15 06:32:39;;;;;;;24.90;13.55;;;;;;;;;;5069521;28;20055;-68
2021/07/15 06:35:15;;;;;;;18.17;12.77;;;;;;;24.70;75.06;94936.59;5070106;28;20064;-68
2021/07/15 06:37:47;;;;;;;17.77;11.00;;;;;;;24.74;75.24;94937.53;5068113;28;20072;-68
2021/07/15 06:40:14;;;;;;;33.00;11.65;;;;;;;24.93;74.85;94919.28;5069054;28;20063;-69
2021/07/15 06:42:41;;;;;;;22.30;10.80;;;;;;;24.99;74.24;94928.69;5069064;28;20052;-68
2021/07/15 06:45:09;;;;;;;20.15;10.95;;;;;;;24.98;74.54;94921.78;5069425;28;20052;-68
2021/07/15 06:47:36;;;;;;;17.60;11.93;;;;;;;25.20;72.82;94927.94;5069409;28;20545;-68
2021/07/15 06:50:06;;;;;;;15.88;10.68;;;;;;;25.35;73.84;94916.78;5070729;28;20048;-68
2021/07/15 06:52:34;;;;;;;15.88;9.88;;;;;;;25.45;71.94;94912.16;5068817;28;20564;-69
2021/07/15 06:55:03;;;;;;;23.58;11.57;;;;;;;25.55;71.60;94912.56;5072471;28;20036;-68
2021/07/15 06:57:30;;;;;;;15.80;11.52;;;;;;;25.38;72.10;94896.66;5061617;28;20063;-68
2021/07/15 06:59:57;;;;;;;14.82;10.52;;;;;;;25.61;71.81;94915.81;5069128;28;20048;-69
2021/07/15 07:02:24;;;;;;;16.58;11.55;;;;;;;25.82;70.71;94909.69;5070219;28;20047;-69
2021/07/15 07:04:52;;;;;;;15.65;10.85;;;;;;;25.95;70.24;94911.34;5070178;28;20470;-69
2021/07/15 07:07:18;;;;;;;16.48;10.75;;;;;;;25.84;69.80;94894.13;5069903;28;20395;-68
2021/07/15 07:09:45;;;;;;;18.88;12.20;;;;;;;25.91;69.43;94908.53;5069884;28;20047;-68
2021/07/15 07:12:12;;;;;;;18.15;11.52;;;;;;;25.99;69.47;94898.91;5068708;28;20048;-68
2021/07/15 07:14:39;;;;;;;13.00;10.35;;;;;;;26.18;68.66;94905.66;5068434;28;20063;-68
2021/07/15 07:17:06;;;;;;;16.05;11.07;;;;;;;26.37;69.22;94905.94;5066691;28;20032;-67
2021/07/15 07:19:33;;;;;;;16.92;10.90;;;;;;;26.61;67.28;94901.78;5067982;28;20088;-66
2021/07/15 07:21:59;;;;;;;15.70;10.35;;;;;;;26.87;67.52;94888.91;5069035;28;20041;-66
2021/07/15 07:24:26;;;;;;;13.55;9.10;;;;;;;26.87;65.98;94883.56;5070053;28;20399;-67
2021/07/15 07:26:53;;;;;;;12.45;8.80;;;;;;;27.05;65.79;94894.03;5065679;28;20045;-66
2021/07/15 07:29:20;;;;;;;18.50;10.80;;;;;;;27.12;66.11;94894.28;5066387;28;20052;-65
2021/07/15 07:31:47;;;;;;;15.18;9.88;;;;;;;27.07;64.75;94895.25;5066589;28;20044;-67
2021/07/15 07:34:16;;;;;;;19.25;9.85;;;;;;;27.04;64.96;94881.78;5067181;28;20036;-67
2021/07/15 07:36:43;;;;;;;14.90;10.00;;;;;;;27.29;63.87;94889.81;5068449;28;20716;-66
2021/07/15 07:39:10;;;;;;;14.98;9.95;;;;;;;27.44;64.37;94889.91;5067103;28;20064;-66
2021/07/15 07:41:37;;;;;;;11.88;10.18;;;;;;;27.41;61.61;94889.81;5068678;28;20052;-66
2021/07/15 07:44:04;;;;;;;19.48;9.73;;;;;;;27.39;62.70;94886.72;5066934;28;20040;-67
2021/07/15 07:46:31;;;;;;;20.27;9.73;;;;;;;27.57;62.20;94882.66;5069183;28;20051;-67
2021/07/15 07:48:58;;;;;;;13.85;10.73;;;;;;;27.69;62.95;94878.38;5068549;28;20438;-67
2021/07/15 07:51:25;;;;;;;18.52;10.25;;;;;;;27.85;62.91;94874.63;5066461;28;20510;-67
2021/07/15 07:53:52;;;;;;;15.32;10.63;;;;;;;28.06;60.73;94875.59;5069412;28;20051;-68
2021/07/15 07:56:19;;;;;;;20.50;9.93;;;;;;;28.18;61.41;94867.50;5068668;28;20055;-66
2021/07/15 07:58:46;;;;;;;31.33;10.80;;;;;;;27.99;62.58;94871.59;5066396;28;20040;-67
2021/07/15 08:01:13;;;;;;;42.22;10.75;;;;;;;27.97;59.91;94868.50;5067454;28;20055;-67
2021/07/15 08:03:40;;;;;;;39.35;11.48;;;;;;;28.34;60.90;94865.66;5065404;28;20040;-67
2021/07/15 08:06:07;;;;;;;16.02;10.05;;;;;;;28.41;58.95;94871.19;5065842;28;20052;-66
2021/07/15 08:08:36;;;;;;;11.18;9.15;;;;;;;28.58;58.95;94869.31;5065955;28;20038;-67
2021/07/15 08:11:04;;;;;;;15.80;10.23;;;;;;;28.59;59.04;94866.31;5065788;28;20059;-67
2021/07/15 08:13:31;;;;;;;12.15;9.35;;;;;;;28.68;58.94;94863.44;5064395;28;20464;-67
2021/07/15 08:15:58;;;;;;;17.17;10.60;;;;;;;28.76;58.14;94865.16;5065752;28;20044;-67
2021/07/15 08:18:25;;;;;;;14.45;9.27;;;;;;;28.77;58.99;94872.09;5064925;28;20538;-67
2021/07/15 08:20:52;;;;;;;16.08;9.57;;;;;;;28.92;58.79;94869.75;5065671;28;20405;-67
2021/07/15 08:23:19;;;;;;;18.20;10.00;;;;;;;28.98;58.33;94861.09;5065741;28;20162;-67
2021/07/15 08:25:46;;;;;;;16.23;10.27;;;;;;;28.96;57.19;94846.47;5065920;28;20064;-67
2021/07/15 08:28:13;;;;;;;15.88;10.00;;;;;;;29.41;57.50;94855.94;5065127;28;20045;-66
2021/07/15 08:30:40;;;;;;;16.50;10.07;;;;;;;29.55;53.65;94855.47;5064939;28;20044;-67
2021/07/15 08:33:07;;;;;;;13.75;10.25;;;;;;;29.61;56.61;94850.59;5065269;28;20137;-66
2021/07/15 08:35:34;;;;;;;17.30;9.63;;;;;;;29.80;56.44;94861.38;5066016;28;20044;-66
2021/07/15 08:38:02;;;;;;;20.88;9.63;;;;;;;29.86;54.83;94854.56;5066419;28;20045;-66
2021/07/15 08:40:30;;;;;;;13.52;8.90;;;;;;;29.93;53.35;94848.56;5067372;28;20043;-66
2021/07/15 08:42:57;;;;;;;13.73;9.85;;;;;;;30.09;55.18;94845.81;5066635;28;22312;-66
2021/07/15 08:45:24;;;;;;;20.38;9.48;;;;;;;30.15;54.46;94833.63;5067109;28;21628;-66
2021/07/15 08:47:51;;;;;;;12.80;9.45;;;;;;;30.38;51.56;94846.31;5064975;28;20525;-67
2021/07/15 08:50:18;;;;;;;12.65;9.45;;;;;;;30.53;52.36;94848.13;5066509;28;20040;-66
2021/07/15 08:52:46;;;;;;;14.68;9.55;;;;;;;30.84;52.71;94841.69;5063768;28;20111;-66
2021/07/15 08:57:47;;;;;;;23.27;9.43;;;;;;;30.66;49.84;94846.03;5064276;28;20037;-67
2021/07/15 09:00:16;;;;;;;11.55;8.68;;;;;;;30.66;50.44;94846.78;5064677;28;20058;-67
2021/07/15 09:02:44;;;;;;;14.82;9.43;;;;;;;30.54;50.99;94844.31;5064969;28;20048;-67
2021/07/15 09:05:13;;;;;;;13.05;9.15;;;;;;;30.65;51.68;94845.25;5064272;28;20040;-68
2021/07/15 09:07:41;;;;;;;19.00;9.68;;;;;;;30.62;51.97;94845.97;5065772;28;20041;-68
2021/07/15 09:10:09;;;;;;;14.40;9.20;;;;;;;30.93;49.04;94838.78;5064849;28;20516;-68
2021/07/15 09:12:36;;;;;;;11.90;9.00;;;;;;;30.77;51.21;94830.84;5065954;28;20040;-68
2021/07/15 09:15:11;;;;;;;13.40;8.98;;;;;;;30.93;49.94;94838.78;5065266;28;20037;-68
2021/07/15 09:17:39;;;;;;;13.90;9.38;;;;;;;31.16;49.92;94837.97;5063891;28;20076;-68
2021/07/15 09:20:09;;;;;;;15.05;9.93;;;;;;;31.32;50.31;94832.44;5066271;28;20041;-68
2021/07/15 09:23:03;;;;;;;15.13;9.50;;;;;;;31.19;49.46;94834.56;5065171;28;20425;-69
2021/07/15 09:25:39;;;;;;;;;;;;;;;31.47;48.06;94830.69;5064758;28;20097;-68
2021/07/15 09:28:12;;;;;;;12.85;8.55;;;;;;;31.58;49.49;94828.94;5065877;28;19985;-68
2021/07/15 09:30:41;;;;;;;10.23;8.57;;;;;;;31.92;49.23;94820.88;5067119;28;20479;-68
2021/07/15 09:33:09;;;;;;;14.15;9.13;;;;;;;32.10;48.31;94821.84;5064802;28;20048;-68
2021/07/15 09:35:38;;;;;;;13.88;9.32;;;;;;;32.11;47.05;94812.63;5065966;28;20432;-67
2021/07/15 09:38:23;;;;;;;16.60;9.30;;;;;;;32.47;46.44;94823.75;5066649;28;20036;-68
2021/07/15 09:40:51;;;;;;;10.88;9.40;;;;;;;32.63;45.10;94820.03;5069895;28;20040;-68
2021/07/15 09:43:26;;;;;;;19.77;9.10;;;;;;;32.73;45.94;94819.34;5068868;28;20429;-68
2021/07/15 09:46:01;;;;;;;15.43;8.18;;;;;;;33.03;43.70;94815.72;5069626;28;20047;-68
2021/07/15 09:48:29;;;;;;;18.55;9.40;;;;;;;33.25;44.09;94809.31;5070741;28;20049;-68
2021/07/15 09:50:58;;;;;;;15.23;8.82;;;;;;;33.56;44.03;94820.63;5070296;28;20032;-68
2021/07/15 09:53:33;;;;;;;13.90;8.40;;;;;;;33.34;42.42;94815.13;5103864;27;20047;-67
2021/07/15 09:56:11;;;;;;;13.35;8.82;;;;;;;33.65;43.13;94807.59;5071550;28;20864;-68
2021/07/15 09:58:40;;;;;;;13.60;9.23;;;;;;;33.62;41.70;94807.53;5068378;28;20152;-68
2021/07/15 10:01:29;;;;;;;12.30;8.65;;;;;;;33.79;40.92;94811.50;5071575;28;20528;-68
2021/07/15 10:04:03;;;;;;;11.70;8.93;;;;;;;33.94;39.83;94807.69;5068518;28;20452;-69
2021/07/15 10:06:47;;;;;;;13.90;9.65;;;;;;;33.56;39.39;94799.03;5069937;28;20036;-68
2021/07/15 10:09:22;;;;;;;15.43;9.13;;;;;;;34.07;40.09;94800.78;5072227;28;20044;-68
2021/07/15 10:11:49;;;;;;;13.80;8.57;;;;;;;33.98;40.44;94797.69;5069536;28;20502;-68
2021/07/15 10:14:18;;;;;;;15.45;8.48;;;;;;;33.79;39.69;94779.88;5063248;28;20055;-68
2021/07/15 10:16:46;;;;;;;17.60;8.95;;;;;;;34.25;39.21;94794.63;5067033;28;20087;-68
2021/07/15 10:19:21;;;;;;;13.05;9.10;;;;;;;34.51;36.60;94793.50;5065198;28;20051;-68
2021/07/15 10:21:59;;;;;;;16.60;9.05;;;;;;;34.92;38.18;94786.94;5066912;28;20047;-68
2021/07/15 10:24:27;;;;;;;16.27;8.75;;;;;;;34.63;36.71;94782.31;5067326;28;20409;-68
2021/07/15 10:27:09;;;;;;;17.15;9.18;;;;;;;34.89;37.45;94782.31;5073607;28;20052;-68
2021/07/15 10:29:37;;;;;;;12.50;8.00;;;;;;;35.10;37.98;94782.28;5067993;28;20484;-68
2021/07/15 10:32:04;;;;;;;17.80;8.63;;;;;;;35.44;37.83;94786.44;5066817;28;20254;-68
2021/07/15 10:34:38;;;;;;;11.77;8.32;;;;;;;35.48;37.15;94785.25;5069194;28;20418;-67
2021/07/15 10:37:06;;;;;;;13.38;8.50;;;;;;;35.30;37.61;94789.97;5070260;28;20033;-68
2021/07/15 10:39:37;;;;;;;13.15;8.45;;;;;;;35.39;35.68;94782.22;5067594;28;20072;-68
2021/07/15 10:42:06;;;;;;;14.88;9.07;;;;;;;35.60;36.80;94776.72;5068027;28;20040;-68
2021/07/15 10:44:33;;;;;;;19.42;9.05;;;;;;;35.69;37.11;94772.78;5066295;28;20134;-68
2021/07/15 10:47:00;;;;;;;11.75;8.85;;;;;;;35.78;35.91;94770.44;5066372;28;20040;-67
2021/07/15 10:49:27;;;;;;;14.38;9.23;;;;;;;35.93;35.79;94768.44;5065177;28;20044;-68
2021/07/15 10:51:56;;;;;;;16.13;8.23;;;;;;;35.99;35.52;94759.47;5064883;28;20114;-68
2021/07/15 10:54:24;;;;;;;13.70;8.02;;;;;;;35.53;35.33;94765.91;5066480;28;20105;-67
2021/07/15 10:56:52;;;;;;;13.20;8.00;;;;;;;35.20;34.28;94770.69;5064430;28;20131;-67
2021/07/15 10:59:28;;;;;;;10.68;8.85;;;;;;;35.60;34.62;94774.00;5066683;28;20036;-68
2021/07/15 11:01:59;;;;;;;21.52;9.68;;;;;;;35.59;34.51;94758.91;5064603;28;20162;-68
2021/07/15 11:04:38;;;;;;;14.57;8.63;;;;;;;35.95;34.36;94769.56;5064373;28;20048;-68
2021/07/15 11:07:31;;;;;;;20.00;9.02;;;;;;;36.00;34.10;94765.69;5064525;28;20047;-68
2021/07/15 11:10:21;;;;;;;14.10;9.10;;;;;;;36.13;34.80;94763.28;5066487;28;20044;-67
2021/07/15 11:13:08;;;;;;;13.40;8.73;;;;;;;36.41;33.64;94766.97;5067764;28;20045;-68
2021/07/15 11:15:54;;;;;;;11.65;8.57;;;;;;;36.46;32.38;94769.25;5066080;28;20413;-68
2021/07/15 11:19:01;;;;;;;13.02;8.30;;;;;;;36.49;32.67;94763.78;5064738;28;20040;-68
2021/07/15 11:21:32;;;;;;;11.23;8.00;;;;;;;36.73;33.08;94762.09;5067058;28;20052;-68
2021/07/15 11:24:05;;;;;;;19.80;9.30;;;;;;;36.50;32.50;94759.13;5064190;28;20051;-68
2021/07/15 11:26:38;;;;;;;13.32;8.50;;;;;;;36.57;31.34;94752.88;5066440;28;20032;-67
2021/07/15 11:29:05;;;;;;;;;;;;;;;36.81;31.36;94751.91;5066611;28;20076;-68
2021/07/15 11:31:42;;;;;;;11.35;8.13;;;;;;;36.81;32.42;94753.88;5064448;28;19928;-68
2021/07/15 11:34:10;;;;;;;14.65;7.38;;;;;;;37.16;34.08;94733.75;5066865;28;20105;-68
2021/07/15 11:36:37;;;;;;;12.20;7.97;;;;;;;37.63;30.49;94738.63;5066577;28;20044;-67
2021/07/15 11:39:07;;;;;;;17.42;8.55;;;;;;;37.52;31.85;94732.53;5059250;28;20063;-68
2021/07/15 11:41:46;;;;;;;20.83;8.93;;;;;;;37.21;30.16;94740.69;5060817;28;20309;-68
2021/07/15 11:44:13;;;;;;;10.25;8.32;;;;;;;37.52;31.71;94733.31;5064582;28;20536;-67